Terminal Aerodrome Forecast
Issued by NWS

Home | Current Version | Previous Version | Text Only | Print | Product List | Glossary On
Versions: 1 2 3 4 5 6 7 8 9 10 11 12 13 14 15 16 17 18 19 20 21 22
000
FTUS41 KBOX 270843 AAC
TAFACK
TAF AMD
KACK 270843Z 2709/2806 09012KT P6SM OVC020
     FM271000 11013G22KT 6SM BR VCSH OVC015
     FM271200 12014KT P6SM VCSH OVC015
     FM271800 14014G21KT 1 1/2SM BR VCSH OVC008
     FM272000 16013KT 3/4SM -RA BR OVC003
     FM272200 17012KT 3/4SM -SHRA BR OVC003
     FM272300 19011KT 3/4SM BR VCSH OVC003
     FM280400 23009KT 1 1/2SM BR VCSH OVC003=

USA.gov is the U.S. government's official web portal to all federal, state and local government web resources and services.